sensor_id;sensor_type;location;lat;lon;timestamp;temperature;humidity
67354;SHT30;54238;52.278;21.056;2023-05-23T00:01:39;14.49;61.25
67354;SHT30;54238;52.278;21.056;2023-05-23T00:04:11;14.46;61.37
67354;SHT30;54238;52.278;21.056;2023-05-23T00:06:45;14.44;61.63
67354;SHT30;54238;52.278;21.056;2023-05-23T00:09:16;14.39;61.76
67354;SHT30;54238;52.278;21.056;2023-05-23T00:11:45;14.36;61.80
67354;SHT30;54238;52.278;21.056;2023-05-23T00:14:17;14.34;61.71
67354;SHT30;54238;52.278;21.056;2023-05-23T00:16:47;14.31;61.49
67354;SHT30;54238;52.278;21.056;2023-05-23T00:19:19;14.31;61.54
67354;SHT30;54238;52.278;21.056;2023-05-23T00:21:46;14.33;61.80
67354;SHT30;54238;52.278;21.056;2023-05-23T00:24:17;14.33;62.01
67354;SHT30;54238;52.278;21.056;2023-05-23T00:26:47;14.34;62.15
67354;SHT30;54238;52.278;21.056;2023-05-23T00:29:17;14.33;62.14
67354;SHT30;54238;52.278;21.056;2023-05-23T00:31:46;14.33;62.07
67354;SHT30;54238;52.278;21.056;2023-05-23T00:34:16;14.31;62.16
67354;SHT30;54238;52.278;21.056;2023-05-23T00:36:47;14.30;62.31
67354;SHT30;54238;52.278;21.056;2023-05-23T00:39:19;14.25;62.45
67354;SHT30;54238;52.278;21.056;2023-05-23T00:41:49;14.19;62.76
67354;SHT30;54238;52.278;21.056;2023-05-23T00:44:18;14.16;62.95
67354;SHT30;54238;52.278;21.056;2023-05-23T00:46:52;14.14;63.12
67354;SHT30;54238;52.278;21.056;2023-05-23T00:49:25;14.11;63.17
67354;SHT30;54238;52.278;21.056;2023-05-23T00:51:56;14.09;63.28
67354;SHT30;54238;52.278;21.056;2023-05-23T00:54:27;14.06;63.41
67354;SHT30;54238;52.278;21.056;2023-05-23T00:57:01;14.01;63.46
67354;SHT30;54238;52.278;21.056;2023-05-23T00:59:30;14.01;63.48
67354;SHT30;54238;52.278;21.056;2023-05-23T01:02:01;13.97;63.54
67354;SHT30;54238;52.278;21.056;2023-05-23T01:04:30;13.91;63.48
67354;SHT30;54238;52.278;21.056;2023-05-23T01:07:02;13.88;63.56
67354;SHT30;54238;52.278;21.056;2023-05-23T01:09:31;13.83;63.85
67354;SHT30;54238;52.278;21.056;2023-05-23T01:15:05;13.78;64.06
67354;SHT30;54238;52.278;21.056;2023-05-23T01:17:55;13.74;64.04
67354;SHT30;54238;52.278;21.056;2023-05-23T01:20:48;13.70;63.95
67354;SHT30;54238;52.278;21.056;2023-05-23T01:29:02;13.55;64.02
67354;SHT30;54238;52.278;21.056;2023-05-23T01:31:38;13.56;64.20
67354;SHT30;54238;52.278;21.056;2023-05-23T01:34:12;13.53;64.16
67354;SHT30;54238;52.278;21.056;2023-05-23T01:36:42;13.47;64.21
67354;SHT30;54238;52.278;21.056;2023-05-23T01:39:15;13.42;64.57
67354;SHT30;54238;52.278;21.056;2023-05-23T01:41:46;13.40;64.40
67354;SHT30;54238;52.278;21.056;2023-05-23T01:44:23;13.41;64.20
67354;SHT30;54238;52.278;21.056;2023-05-23T01:46:50;13.41;64.17
67354;SHT30;54238;52.278;21.056;2023-05-23T01:49:21;13.41;63.96
67354;SHT30;54238;52.278;21.056;2023-05-23T01:51:52;13.39;63.93
67354;SHT30;54238;52.278;21.056;2023-05-23T01:54:22;13.38;63.93
67354;SHT30;54238;52.278;21.056;2023-05-23T01:57:00;13.38;64.13
67354;SHT30;54238;52.278;21.056;2023-05-23T01:59:27;13.37;64.13
67354;SHT30;54238;52.278;21.056;2023-05-23T02:01:57;13.34;64.15
67354;SHT30;54238;52.278;21.056;2023-05-23T02:06:53;13.29;64.30
67354;SHT30;54238;52.278;21.056;2023-05-23T02:09:23;13.24;64.21
67354;SHT30;54238;52.278;21.056;2023-05-23T02:11:54;13.20;64.21
67354;SHT30;54238;52.278;21.056;2023-05-23T02:14:24;13.16;64.42
67354;SHT30;54238;52.278;21.056;2023-05-23T02:16:58;13.12;64.69
67354;SHT30;54238;52.278;21.056;2023-05-23T02:19:27;13.07;64.84
67354;SHT30;54238;52.278;21.056;2023-05-23T02:21:57;12.99;64.95
67354;SHT30;54238;52.278;21.056;2023-05-23T02:24:28;12.95;65.12
67354;SHT30;54238;52.278;21.056;2023-05-23T02:27:02;12.88;65.20
67354;SHT30;54238;52.278;21.056;2023-05-23T02:29:30;12.83;65.30
67354;SHT30;54238;52.278;21.056;2023-05-23T02:31:59;12.78;65.51
67354;SHT30;54238;52.278;21.056;2023-05-23T02:34:33;12.74;65.72
67354;SHT30;54238;52.278;21.056;2023-05-23T02:37:07;12.71;65.78
67354;SHT30;54238;52.278;21.056;2023-05-23T02:39:36;12.67;66.01
67354;SHT30;54238;52.278;21.056;2023-05-23T02:42:06;12.65;66.16
67354;SHT30;54238;52.278;21.056;2023-05-23T02:44:38;12.61;66.38
67354;SHT30;54238;52.278;21.056;2023-05-23T02:47:06;12.56;66.40
67354;SHT30;54238;52.278;21.056;2023-05-23T02:49:33;12.55;66.67
67354;SHT30;54238;52.278;21.056;2023-05-23T02:52:06;12.55;66.81
67354;SHT30;54238;52.278;21.056;2023-05-23T02:54:35;12.53;66.78
67354;SHT30;54238;52.278;21.056;2023-05-23T02:57:02;12.53;66.67
67354;SHT30;54238;52.278;21.056;2023-05-23T02:59:34;12.51;66.78
67354;SHT30;54238;52.278;21.056;2023-05-23T03:02:02;12.49;66.94
67354;SHT30;54238;52.278;21.056;2023-05-23T03:04:34;12.47;67.11
67354;SHT30;54238;52.278;21.056;2023-05-23T03:07:04;12.48;67.32
67354;SHT30;54238;52.278;21.056;2023-05-23T03:09:31;12.48;67.33
67354;SHT30;54238;52.278;21.056;2023-05-23T03:11:59;12.48;67.31
67354;SHT30;54238;52.278;21.056;2023-05-23T03:14:29;12.46;67.23
67354;SHT30;54238;52.278;21.056;2023-05-23T03:16:56;12.47;67.24
67354;SHT30;54238;52.278;21.056;2023-05-23T03:19:31;12.50;67.47
67354;SHT30;54238;52.278;21.056;2023-05-23T03:21:58;12.51;67.58
67354;SHT30;54238;52.278;21.056;2023-05-23T03:24:30;12.51;67.63
67354;SHT30;54238;52.278;21.056;2023-05-23T03:27:02;12.53;67.57
67354;SHT30;54238;52.278;21.056;2023-05-23T03:29:36;12.56;67.68
67354;SHT30;54238;52.278;21.056;2023-05-23T03:32:04;12.58;67.70
67354;SHT30;54238;52.278;21.056;2023-05-23T03:34:32;12.60;67.65
67354;SHT30;54238;52.278;21.056;2023-05-23T03:37:04;12.62;67.58
67354;SHT30;54238;52.278;21.056;2023-05-23T03:39:34;12.65;67.52
67354;SHT30;54238;52.278;21.056;2023-05-23T03:42:03;12.68;67.33
67354;SHT30;54238;52.278;21.056;2023-05-23T03:44:36;12.74;67.38
67354;SHT30;54238;52.278;21.056;2023-05-23T03:47:07;12.78;67.12
67354;SHT30;54238;52.278;21.056;2023-05-23T03:49:38;12.80;66.99
67354;SHT30;54238;52.278;21.056;2023-05-23T03:52:14;12.85;67.11
67354;SHT30;54238;52.278;21.056;2023-05-23T03:54:42;12.90;67.11
67354;SHT30;54238;52.278;21.056;2023-05-23T03:57:14;12.98;67.10
67354;SHT30;54238;52.278;21.056;2023-05-23T03:59:46;13.04;66.68
67354;SHT30;54238;52.278;21.056;2023-05-23T04:02:18;13.10;66.33
67354;SHT30;54238;52.278;21.056;2023-05-23T04:04:50;13.17;65.98
67354;SHT30;54238;52.278;21.056;2023-05-23T04:07:19;13.24;66.10
67354;SHT30;54238;52.278;21.056;2023-05-23T04:09:51;13.33;66.30
67354;SHT30;54238;52.278;21.056;2023-05-23T04:12:23;13.43;66.13
67354;SHT30;54238;52.278;21.056;2023-05-23T04:14:55;13.52;65.78
67354;SHT30;54238;52.278;21.056;2023-05-23T04:17:26;13.61;65.56
67354;SHT30;54238;52.278;21.056;2023-05-23T04:19:59;13.69;65.08
67354;SHT30;54238;52.278;21.056;2023-05-23T04:22:34;13.77;64.79
67354;SHT30;54238;52.278;21.056;2023-05-23T04:25:04;13.85;64.69
67354;SHT30;54238;52.278;21.056;2023-05-23T04:27:33;13.93;64.55
67354;SHT30;54238;52.278;21.056;2023-05-23T04:30:06;14.01;64.43
67354;SHT30;54238;52.278;21.056;2023-05-23T04:32:42;14.09;63.96
67354;SHT30;54238;52.278;21.056;2023-05-23T04:35:09;14.19;63.80
67354;SHT30;54238;52.278;21.056;2023-05-23T04:37:42;14.28;63.43
67354;SHT30;54238;52.278;21.056;2023-05-23T04:40:11;14.37;62.86
67354;SHT30;54238;52.278;21.056;2023-05-23T04:42:44;14.49;62.50
67354;SHT30;54238;52.278;21.056;2023-05-23T04:45:14;14.60;62.22
67354;SHT30;54238;52.278;21.056;2023-05-23T04:47:45;14.72;61.89
67354;SHT30;54238;52.278;21.056;2023-05-23T04:50:14;14.83;61.55
67354;SHT30;54238;52.278;21.056;2023-05-23T04:52:42;14.94;61.31
67354;SHT30;54238;52.278;21.056;2023-05-23T04:55:09;15.06;61.01
67354;SHT30;54238;52.278;21.056;2023-05-23T04:57:36;15.20;60.50
67354;SHT30;54238;52.278;21.056;2023-05-23T05:00:06;15.33;60.26
67354;SHT30;54238;52.278;21.056;2023-05-23T05:02:37;15.42;60.09
67354;SHT30;54238;52.278;21.056;2023-05-23T05:05:07;15.57;60.00
67354;SHT30;54238;52.278;21.056;2023-05-23T05:07:35;15.72;59.74
67354;SHT30;54238;52.278;21.056;2023-05-23T05:10:06;15.89;59.06
67354;SHT30;54238;52.278;21.056;2023-05-23T05:12:45;16.02;57.99
67354;SHT30;54238;52.278;21.056;2023-05-23T05:15:15;16.16;57.21
67354;SHT30;54238;52.278;21.056;2023-05-23T05:17:47;16.31;56.84
67354;SHT30;54238;52.278;21.056;2023-05-23T05:20:19;16.44;56.29
67354;SHT30;54238;52.278;21.056;2023-05-23T05:22:53;16.58;56.03
67354;SHT30;54238;52.278;21.056;2023-05-23T05:25:25;16.70;55.80
67354;SHT30;54238;52.278;21.056;2023-05-23T05:28:02;16.86;55.58
67354;SHT30;54238;52.278;21.056;2023-05-23T05:30:32;16.98;54.60
67354;SHT30;54238;52.278;21.056;2023-05-23T05:33:02;17.11;54.24
67354;SHT30;54238;52.278;21.056;2023-05-23T05:35:35;17.23;53.74
67354;SHT30;54238;52.278;21.056;2023-05-23T05:38:05;17.34;53.48
67354;SHT30;54238;52.278;21.056;2023-05-23T05:40:36;17.47;53.22
67354;SHT30;54238;52.278;21.056;2023-05-23T05:43:05;17.59;53.10
67354;SHT30;54238;52.278;21.056;2023-05-23T05:45:33;17.72;52.65
67354;SHT30;54238;52.278;21.056;2023-05-23T05:48:02;17.83;51.96
67354;SHT30;54238;52.278;21.056;2023-05-23T05:50:29;17.94;51.78
67354;SHT30;54238;52.278;21.056;2023-05-23T05:52:56;18.05;51.66
67354;SHT30;54238;52.278;21.056;2023-05-23T05:55:25;18.16;51.21
67354;SHT30;54238;52.278;21.056;2023-05-23T05:57:57;18.26;51.33
67354;SHT30;54238;52.278;21.056;2023-05-23T06:00:27;18.38;51.11
67354;SHT30;54238;52.278;21.056;2023-05-23T06:02:56;18.50;50.63
67354;SHT30;54238;52.278;21.056;2023-05-23T06:05:27;18.60;50.15
67354;SHT30;54238;52.278;21.056;2023-05-23T06:08:05;18.72;49.76
67354;SHT30;54238;52.278;21.056;2023-05-23T06:10:36;18.86;49.36
67354;SHT30;54238;52.278;21.056;2023-05-23T06:13:05;19.00;49.37
67354;SHT30;54238;52.278;21.056;2023-05-23T06:15:35;19.12;49.43
67354;SHT30;54238;52.278;21.056;2023-05-23T06:18:04;19.24;48.88
67354;SHT30;54238;52.278;21.056;2023-05-23T06:20:38;19.36;48.20
67354;SHT30;54238;52.278;21.056;2023-05-23T06:23:10;19.49;47.70
67354;SHT30;54238;52.278;21.056;2023-05-23T06:25:40;19.60;47.73
67354;SHT30;54238;52.278;21.056;2023-05-23T06:28:07;19.73;47.54
67354;SHT30;54238;52.278;21.056;2023-05-23T06:30:39;19.85;47.06
67354;SHT30;54238;52.278;21.056;2023-05-23T06:33:06;19.97;46.40
67354;SHT30;54238;52.278;21.056;2023-05-23T06:35:34;20.10;45.96
67354;SHT30;54238;52.278;21.056;2023-05-23T06:38:04;20.21;45.59
67354;SHT30;54238;52.278;21.056;2023-05-23T06:40:31;20.32;45.48
67354;SHT30;54238;52.278;21.056;2023-05-23T06:43:04;20.45;45.09
67354;SHT30;54238;52.278;21.056;2023-05-23T06:45:31;20.58;44.64
67354;SHT30;54238;52.278;21.056;2023-05-23T06:48:03;20.68;44.05
67354;SHT30;54238;52.278;21.056;2023-05-23T06:50:40;20.80;44.02
67354;SHT30;54238;52.278;21.056;2023-05-23T06:53:10;20.91;43.68
67354;SHT30;54238;52.278;21.056;2023-05-23T06:55:37;21.00;43.41
67354;SHT30;54238;52.278;21.056;2023-05-23T06:58:06;21.10;42.95
67354;SHT30;54238;52.278;21.056;2023-05-23T07:00:34;21.22;42.48
67354;SHT30;54238;52.278;21.056;2023-05-23T07:03:04;21.33;42.12
67354;SHT30;54238;52.278;21.056;2023-05-23T07:05:36;21.45;41.89
67354;SHT30;54238;52.278;21.056;2023-05-23T07:08:05;21.57;41.81
67354;SHT30;54238;52.278;21.056;2023-05-23T07:10:37;21.68;41.65
67354;SHT30;54238;52.278;21.056;2023-05-23T07:13:11;21.80;41.18
67354;SHT30;54238;52.278;21.056;2023-05-23T07:15:38;21.90;40.61
67354;SHT30;54238;52.278;21.056;2023-05-23T07:18:09;21.99;40.58
67354;SHT30;54238;52.278;21.056;2023-05-23T07:20:37;22.07;40.12
67354;SHT30;54238;52.278;21.056;2023-05-23T07:23:06;22.17;40.33
67354;SHT30;54238;52.278;21.056;2023-05-23T07:25:33;22.27;39.83
67354;SHT30;54238;52.278;21.056;2023-05-23T07:28:05;22.35;39.53
67354;SHT30;54238;52.278;21.056;2023-05-23T07:30:34;22.45;39.06
67354;SHT30;54238;52.278;21.056;2023-05-23T07:33:02;22.52;37.96
67354;SHT30;54238;52.278;21.056;2023-05-23T07:35:29;22.56;38.06
67354;SHT30;54238;52.278;21.056;2023-05-23T07:38:01;22.64;38.85
67354;SHT30;54238;52.278;21.056;2023-05-23T07:40:31;22.76;38.34
67354;SHT30;54238;52.278;21.056;2023-05-23T07:42:58;22.83;37.74
67354;SHT30;54238;52.278;21.056;2023-05-23T07:45:25;22.91;38.36
67354;SHT30;54238;52.278;21.056;2023-05-23T07:48:02;23.01;38.63
67354;SHT30;54238;52.278;21.056;2023-05-23T07:50:33;23.13;38.74
67354;SHT30;54238;52.278;21.056;2023-05-23T07:53:02;23.24;37.78
67354;SHT30;54238;52.278;21.056;2023-05-23T07:55:37;23.32;37.70
67354;SHT30;54238;52.278;21.056;2023-05-23T07:58:06;23.41;37.26
67354;SHT30;54238;52.278;21.056;2023-05-23T08:00:39;23.50;36.29
67354;SHT30;54238;52.278;21.056;2023-05-23T08:03:10;23.57;36.15
67354;SHT30;54238;52.278;21.056;2023-05-23T08:05:42;23.66;36.88
67354;SHT30;54238;52.278;21.056;2023-05-23T08:08:12;23.75;36.74
67354;SHT30;54238;52.278;21.056;2023-05-23T08:10:46;23.83;36.58
67354;SHT30;54238;52.278;21.056;2023-05-23T08:13:24;23.87;35.06
67354;SHT30;54238;52.278;21.056;2023-05-23T08:15:52;23.92;35.15
67354;SHT30;54238;52.278;21.056;2023-05-23T08:18:23;23.96;34.98
67354;SHT30;54238;52.278;21.056;2023-05-23T08:20:56;24.01;34.68
67354;SHT30;54238;52.278;21.056;2023-05-23T08:23:31;24.09;34.76
67354;SHT30;54238;52.278;21.056;2023-05-23T08:25:58;24.17;34.78
67354;SHT30;54238;52.278;21.056;2023-05-23T08:28:25;24.23;34.03
67354;SHT30;54238;52.278;21.056;2023-05-23T08:31:00;24.30;33.27
67354;SHT30;54238;52.278;21.056;2023-05-23T08:33:33;24.33;32.33
67354;SHT30;54238;52.278;21.056;2023-05-23T08:36:00;24.37;32.73
67354;SHT30;54238;52.278;21.056;2023-05-23T08:38:30;24.42;33.48
67354;SHT30;54238;52.278;21.056;2023-05-23T08:40:59;24.52;33.63
67354;SHT30;54238;52.278;21.056;2023-05-23T08:43:28;24.62;32.27
67354;SHT30;54238;52.278;21.056;2023-05-23T08:45:55;24.70;31.67
67354;SHT30;54238;52.278;21.056;2023-05-23T08:48:22;24.79;31.01
67354;SHT30;54238;52.278;21.056;2023-05-23T08:50:58;24.86;30.77
67354;SHT30;54238;52.278;21.056;2023-05-23T08:53:30;24.98;30.87
67354;SHT30;54238;52.278;21.056;2023-05-23T08:55:58;25.10;30.46
67354;SHT30;54238;52.278;21.056;2023-05-23T08:58:29;25.24;30.45
67354;SHT30;54238;52.278;21.056;2023-05-23T09:01:07;25.43;29.83
67354;SHT30;54238;52.278;21.056;2023-05-23T09:03:39;25.58;28.89
67354;SHT30;54238;52.278;21.056;2023-05-23T09:06:12;25.68;28.75
67354;SHT30;54238;52.278;21.056;2023-05-23T09:08:44;25.81;29.43
67354;SHT30;54238;52.278;21.056;2023-05-23T09:11:15;25.92;28.88
67354;SHT30;54238;52.278;21.056;2023-05-23T09:13:42;25.98;29.42
67354;SHT30;54238;52.278;21.056;2023-05-23T09:16:14;26.18;28.89
67354;SHT30;54238;52.278;21.056;2023-05-23T09:18:52;26.42;28.93
67354;SHT30;54238;52.278;21.056;2023-05-23T09:21:23;26.59;28.12
67354;SHT30;54238;52.278;21.056;2023-05-23T09:23:55;26.76;28.09
67354;SHT30;54238;52.278;21.056;2023-05-23T09:26:23;26.86;27.51
67354;SHT30;54238;52.278;21.056;2023-05-23T09:28:57;27.01;27.16
67354;SHT30;54238;52.278;21.056;2023-05-23T09:31:28;27.11;27.10
67354;SHT30;54238;52.278;21.056;2023-05-23T09:34:00;27.28;27.04
67354;SHT30;54238;52.278;21.056;2023-05-23T09:36:32;27.42;26.77
67354;SHT30;54238;52.278;21.056;2023-05-23T09:39:06;27.57;26.94
67354;SHT30;54238;52.278;21.056;2023-05-23T09:41:38;27.72;26.11
67354;SHT30;54238;52.278;21.056;2023-05-23T09:44:07;27.73;25.66
67354;SHT30;54238;52.278;21.056;2023-05-23T09:46:35;27.61;25.81
67354;SHT30;54238;52.278;21.056;2023-05-23T09:49:15;27.68;27.02
67354;SHT30;54238;52.278;21.056;2023-05-23T09:51:57;27.81;26.97
67354;SHT30;54238;52.278;21.056;2023-05-23T09:54:30;27.65;26.30
67354;SHT30;54238;52.278;21.056;2023-05-23T09:56:57;27.74;26.95
67354;SHT30;54238;52.278;21.056;2023-05-23T09:59:31;27.91;26.72
67354;SHT30;54238;52.278;21.056;2023-05-23T10:02:01;28.10;27.23
67354;SHT30;54238;52.278;21.056;2023-05-23T10:04:42;28.37;26.89
67354;SHT30;54238;52.278;21.056;2023-05-23T10:07:12;28.70;27.11
67354;SHT30;54238;52.278;21.056;2023-05-23T10:09:50;29.10;27.14
67354;SHT30;54238;52.278;21.056;2023-05-23T10:15:01;29.75;26.62
67354;SHT30;54238;52.278;21.056;2023-05-23T10:17:52;29.82;25.82
67354;SHT30;54238;52.278;21.056;2023-05-23T10:20:46;29.62;25.63
67354;SHT30;54238;52.278;21.056;2023-05-23T10:23:25;29.44;25.15
67354;SHT30;54238;52.278;21.056;2023-05-23T10:25:54;29.24;26.12
67354;SHT30;54238;52.278;21.056;2023-05-23T10:28:23;29.17;25.15
67354;SHT30;54238;52.278;21.056;2023-05-23T10:30:50;29.08;25.64
67354;SHT30;54238;52.278;21.056;2023-05-23T10:33:17;29.32;25.27
67354;SHT30;54238;52.278;21.056;2023-05-23T10:38:46;29.78;25.84
67354;SHT30;54238;52.278;21.056;2023-05-23T10:41:50;29.97;25.18
67354;SHT30;54238;52.278;21.056;2023-05-23T10:44:28;29.99;24.83
67354;SHT30;54238;52.278;21.056;2023-05-23T10:47:00;29.98;25.31
67354;SHT30;54238;52.278;21.056;2023-05-23T10:52:09;29.96;25.73
67354;SHT30;54238;52.278;21.056;2023-05-23T10:54:49;29.97;25.42
67354;SHT30;54238;52.278;21.056;2023-05-23T10:57:25;30.08;25.31
67354;SHT30;54238;52.278;21.056;2023-05-23T10:59:57;30.05;25.08
67354;SHT30;54238;52.278;21.056;2023-05-23T11:02:28;30.06;24.59
67354;SHT30;54238;52.278;21.056;2023-05-23T11:08:09;30.24;23.43
67354;SHT30;54238;52.278;21.056;2023-05-23T11:16:39;30.95;23.78
67354;SHT30;54238;52.278;21.056;2023-05-23T11:21:48;31.69;23.01
67354;SHT30;54238;52.278;21.056;2023-05-23T11:24:50;31.85;21.72
67354;SHT30;54238;52.278;21.056;2023-05-23T11:27:33;31.74;22.16
67354;SHT30;54238;52.278;21.056;2023-05-23T11:30:10;31.44;23.05
67354;SHT30;54238;52.278;21.056;2023-05-23T11:32:51;31.08;23.45
67354;SHT30;54238;52.278;21.056;2023-05-23T11:35:23;30.59;24.11
67354;SHT30;54238;52.278;21.056;2023-05-23T11:37:55;30.19;24.67
67354;SHT30;54238;52.278;21.056;2023-05-23T11:40:24;30.00;24.19
67354;SHT30;54238;52.278;21.056;2023-05-23T11:43:10;29.85;24.64
67354;SHT30;54238;52.278;21.056;2023-05-23T11:45:48;29.86;24.65
67354;SHT30;54238;52.278;21.056;2023-05-23T11:48:22;29.97;24.79
67354;SHT30;54238;52.278;21.056;2023-05-23T11:50:52;30.30;26.23
67354;SHT30;54238;52.278;21.056;2023-05-23T11:53:21;30.71;25.08
67354;SHT30;54238;52.278;21.056;2023-05-23T12:01:01;31.36;24.38
67354;SHT30;54238;52.278;21.056;2023-05-23T12:03:34;31.47;23.73
67354;SHT30;54238;52.278;21.056;2023-05-23T12:06:27;31.78;23.40
67354;SHT30;54238;52.278;21.056;2023-05-23T12:08:57;32.01;22.80
67354;SHT30;54238;52.278;21.056;2023-05-23T12:11:36;32.30;22.18
67354;SHT30;54238;52.278;21.056;2023-05-23T12:14:05;32.50;21.71
67354;SHT30;54238;52.278;21.056;2023-05-23T12:16:45;32.89;22.45
67354;SHT30;54238;52.278;21.056;2023-05-23T12:19:18;33.27;21.54
67354;SHT30;54238;52.278;21.056;2023-05-23T12:21:48;33.49;22.08
67354;SHT30;54238;52.278;21.056;2023-05-23T12:24:20;33.74;20.52
67354;SHT30;54238;52.278;21.056;2023-05-23T12:26:54;33.65;20.74
67354;SHT30;54238;52.278;21.056;2023-05-23T12:29:32;33.82;21.28
67354;SHT30;54238;52.278;21.056;2023-05-23T12:32:06;33.90;20.93
67354;SHT30;54238;52.278;21.056;2023-05-23T12:34:39;33.61;20.15
67354;SHT30;54238;52.278;21.056;2023-05-23T12:37:08;33.62;20.32
67354;SHT30;54238;52.278;21.056;2023-05-23T12:39:42;33.40;21.03
67354;SHT30;54238;52.278;21.056;2023-05-23T12:42:11;33.11;21.70
67354;SHT30;54238;52.278;21.056;2023-05-23T12:44:41;32.70;21.60
67354;SHT30;54238;52.278;21.056;2023-05-23T12:47:09;32.26;21.85
67354;SHT30;54238;52.278;21.056;2023-05-23T12:49:42;31.99;22.94
67354;SHT30;54238;52.278;21.056;2023-05-23T12:52:12;31.93;22.26
67354;SHT30;54238;52.278;21.056;2023-05-23T12:54:41;31.66;22.40
67354;SHT30;54238;52.278;21.056;2023-05-23T12:57:08;31.50;23.51
67354;SHT30;54238;52.278;21.056;2023-05-23T12:59:36;31.52;23.54
67354;SHT30;54238;52.278;21.056;2023-05-23T13:02:05;31.60;23.47
67354;SHT30;54238;52.278;21.056;2023-05-23T13:04:37;31.70;23.82
67354;SHT30;54238;52.278;21.056;2023-05-23T13:07:08;31.73;23.79
67354;SHT30;54238;52.278;21.056;2023-05-23T13:09:38;31.53;23.55
67354;SHT30;54238;52.278;21.056;2023-05-23T13:12:07;31.25;23.68
67354;SHT30;54238;52.278;21.056;2023-05-23T13:14:35;31.08;23.59
67354;SHT30;54238;52.278;21.056;2023-05-23T13:17:05;31.25;24.10
67354;SHT30;54238;52.278;21.056;2023-05-23T13:19:32;31.55;23.87
67354;SHT30;54238;52.278;21.056;2023-05-23T13:22:04;31.67;23.96
67354;SHT30;54238;52.278;21.056;2023-05-23T13:24:36;32.00;23.63
67354;SHT30;54238;52.278;21.056;2023-05-23T13:27:06;32.28;23.39
67354;SHT30;54238;52.278;21.056;2023-05-23T13:29:36;32.54;22.83
67354;SHT30;54238;52.278;21.056;2023-05-23T13:32:05;32.31;22.68
67354;SHT30;54238;52.278;21.056;2023-05-23T13:34:34;32.18;22.70
67354;SHT30;54238;52.278;21.056;2023-05-23T13:37:06;32.40;22.89
67354;SHT30;54238;52.278;21.056;2023-05-23T13:39:36;32.71;22.63
67354;SHT30;54238;52.278;21.056;2023-05-23T13:42:07;33.09;23.17
67354;SHT30;54238;52.278;21.056;2023-05-23T13:44:37;33.44;22.01
67354;SHT30;54238;52.278;21.056;2023-05-23T13:47:13;33.72;21.96
67354;SHT30;54238;52.278;21.056;2023-05-23T13:49:43;33.98;21.86
67354;SHT30;54238;52.278;21.056;2023-05-23T13:52:15;34.28;21.85
67354;SHT30;54238;52.278;21.056;2023-05-23T13:54:45;34.53;20.89
67354;SHT30;54238;52.278;21.056;2023-05-23T13:57:20;34.70;20.47
67354;SHT30;54238;52.278;21.056;2023-05-23T13:59:47;34.79;20.84
67354;SHT30;54238;52.278;21.056;2023-05-23T14:02:14;34.94;20.69
67354;SHT30;54238;52.278;21.056;2023-05-23T14:04:41;34.96;19.73
67354;SHT30;54238;52.278;21.056;2023-05-23T14:07:13;35.08;20.36
67354;SHT30;54238;52.278;21.056;2023-05-23T14:09:40;35.35;20.71
67354;SHT30;54238;52.278;21.056;2023-05-23T14:12:09;35.53;20.19
67354;SHT30;54238;52.278;21.056;2023-05-23T14:14:37;35.52;20.30
67354;SHT30;54238;52.278;21.056;2023-05-23T14:17:08;35.56;19.92
67354;SHT30;54238;52.278;21.056;2023-05-23T14:19:43;35.31;20.06
67354;SHT30;54238;52.278;21.056;2023-05-23T14:22:11;34.77;20.62
67354;SHT30;54238;52.278;21.056;2023-05-23T14:24:41;34.17;20.42
67354;SHT30;54238;52.278;21.056;2023-05-23T14:27:10;33.57;20.95
67354;SHT30;54238;52.278;21.056;2023-05-23T14:29:45;33.00;21.65
67354;SHT30;54238;52.278;21.056;2023-05-23T14:32:12;32.76;22.18
67354;SHT30;54238;52.278;21.056;2023-05-23T14:34:42;32.84;22.58
67354;SHT30;54238;52.278;21.056;2023-05-23T14:37:09;33.05;22.37
67354;SHT30;54238;52.278;21.056;2023-05-23T14:39:41;33.29;22.15
67354;SHT30;54238;52.278;21.056;2023-05-23T14:42:10;33.49;22.44
67354;SHT30;54238;52.278;21.056;2023-05-23T14:44:40;33.64;22.39
67354;SHT30;54238;52.278;21.056;2023-05-23T14:47:07;33.80;22.22
67354;SHT30;54238;52.278;21.056;2023-05-23T14:49:34;33.87;22.11
67354;SHT30;54238;52.278;21.056;2023-05-23T14:52:06;33.83;22.28
67354;SHT30;54238;52.278;21.056;2023-05-23T14:54:38;33.74;21.97
67354;SHT30;54238;52.278;21.056;2023-05-23T14:57:09;33.57;21.98
67354;SHT30;54238;52.278;21.056;2023-05-23T14:59:40;33.55;21.67
67354;SHT30;54238;52.278;21.056;2023-05-23T15:02:07;33.45;21.40
67354;SHT30;54238;52.278;21.056;2023-05-23T15:04:34;33.24;22.03
67354;SHT30;54238;52.278;21.056;2023-05-23T15:07:07;32.96;22.54
67354;SHT30;54238;52.278;21.056;2023-05-23T15:09:40;32.65;22.32
67354;SHT30;54238;52.278;21.056;2023-05-23T15:12:10;32.33;22.16
67354;SHT30;54238;52.278;21.056;2023-05-23T15:14:37;32.07;22.92
67354;SHT30;54238;52.278;21.056;2023-05-23T15:17:09;31.91;23.11
67354;SHT30;54238;52.278;21.056;2023-05-23T15:19:38;31.75;22.68
67354;SHT30;54238;52.278;21.056;2023-05-23T15:22:12;31.71;23.26
67354;SHT30;54238;52.278;21.056;2023-05-23T15:24:39;31.79;23.84
67354;SHT30;54238;52.278;21.056;2023-05-23T15:27:06;31.83;23.28
67354;SHT30;54238;52.278;21.056;2023-05-23T15:29:33;31.64;23.17
67354;SHT30;54238;52.278;21.056;2023-05-23T15:32:07;31.42;23.41
67354;SHT30;54238;52.278;21.056;2023-05-23T15:34:34;31.27;23.60
67354;SHT30;54238;52.278;21.056;2023-05-23T15:37:02;31.26;23.79
67354;SHT30;54238;52.278;21.056;2023-05-23T15:39:31;31.30;24.05
67354;SHT30;54238;52.278;21.056;2023-05-23T15:42:03;31.39;23.72
67354;SHT30;54238;52.278;21.056;2023-05-23T15:44:30;31.45;23.25
67354;SHT30;54238;52.278;21.056;2023-05-23T15:47:00;31.58;23.16
67354;SHT30;54238;52.278;21.056;2023-05-23T15:49:31;31.67;23.11
67354;SHT30;54238;52.278;21.056;2023-05-23T15:52:01;31.64;22.97
67354;SHT30;54238;52.278;21.056;2023-05-23T15:54:30;31.61;22.92
67354;SHT30;54238;52.278;21.056;2023-05-23T15:57:02;31.47;22.34
67354;SHT30;54238;52.278;21.056;2023-05-23T15:59:29;31.44;22.51
67354;SHT30;54238;52.278;21.056;2023-05-23T16:02:02;31.45;22.67
67354;SHT30;54238;52.278;21.056;2023-05-23T16:04:37;31.47;22.51
67354;SHT30;54238;52.278;21.056;2023-05-23T16:07:07;31.43;22.84
67354;SHT30;54238;52.278;21.056;2023-05-23T16:09:34;31.36;22.68
67354;SHT30;54238;52.278;21.056;2023-05-23T16:12:04;31.20;22.89
67354;SHT30;54238;52.278;21.056;2023-05-23T16:14:34;31.00;23.66
67354;SHT30;54238;52.278;21.056;2023-05-23T16:17:04;30.88;23.47